Time;durP1;ratioP1;P1;durP2;ratioP2;P2;SDS_P1;SDS_P2;PMS_P1;PMS_P2;Temp;Humidity;BMP_temperature;BMP_pressure;BME280_temperature;BME280_humidity;BME280_pressure;Samples;Min_cycle;Max_cycle;Signal;HPM_P1;HPM_P2
2021/12/23 00:02:01;;;;;;;21.80;14.27;;;;;;;;;;5036863;28;20450;-49
2021/12/23 00:04:27;;;;;;;19.03;14.00;;;;;;;;;;5025128;28;21599;-54
2021/12/23 00:06:53;;;;;;;29.90;14.47;;;;;;;;;;5047868;28;20540;-50
2021/12/23 00:09:20;;;;;;;32.63;17.30;;;;;;;;;;5024101;28;20461;-50
2021/12/23 00:11:46;;;;;;;30.17;13.87;;;;;;;;;;5043445;28;20443;-49
2021/12/23 00:14:13;;;;;;;28.27;15.90;;;;;;;;;;5037162;28;20443;-49
2021/12/23 00:16:55;;;;;;;25.30;16.53;;;;;;;;;;5047923;28;20454;-49
2021/12/23 00:19:37;;;;;;;23.80;14.97;;;;;;;;;;5021583;28;20561;-48
2021/12/23 00:24:50;;;;;;;24.13;13.20;;;;;;;;;;5005645;28;20434;-48
2021/12/23 00:27:16;;;;;;;27.33;13.77;;;;;;;;;;5020490;28;20450;-49
2021/12/23 00:32:56;;;;;;;19.70;12.00;;;;;;;;;;5041270;28;20508;-48
2021/12/23 00:35:31;;;;;;;21.77;12.30;;;;;;;;;;5025272;28;20447;-50
2021/12/23 00:38:05;;;;;;;32.07;14.10;;;;;;;;;;5047155;28;20765;-49
2021/12/23 00:40:42;;;;;;;22.50;12.57;;;;;;;;;;5031306;28;20454;-50
2021/12/23 00:43:08;;;;;;;26.97;13.70;;;;;;;;;;5043943;28;20541;-49
2021/12/23 00:45:34;;;;;;;21.77;13.50;;;;;;;;;;5040393;28;20529;-49
2021/12/23 00:48:00;;;;;;;27.27;14.30;;;;;;;;;;5043723;28;20493;-49
2021/12/23 00:50:27;;;;;;;27.97;15.80;;;;;;;;;;5023885;28;20454;-50
2021/12/23 00:53:00;;;;;;;22.60;13.50;;;;;;;;;;5037265;28;20793;-48
2021/12/23 00:55:35;;;;;;;27.03;14.77;;;;;;;;;;5031936;28;20748;-49
2021/12/23 00:58:02;;;;;;;28.63;14.23;;;;;;;;;;5044910;28;21239;-48
2021/12/23 01:00:28;;;;;;;30.57;16.03;;;;;;;;;;5036938;28;20447;-47
2021/12/23 01:02:54;;;;;;;31.00;15.80;;;;;;;;;;5042486;28;20434;-48
2021/12/23 01:08:24;;;;;;;31.53;15.20;;;;;;;;;;5039108;28;20434;-49
2021/12/23 01:10:55;;;;;;;28.47;14.60;;;;;;;;;;5036738;28;20438;-49
2021/12/23 01:13:25;;;;;;;26.20;13.80;;;;;;;;;;5024770;28;20478;-48
2021/12/23 01:16:03;;;;;;;25.63;15.17;;;;;;;;;;5032683;28;20430;-49
2021/12/23 01:18:41;;;;;;;25.30;13.83;;;;;;;;;;5028939;28;20488;-48
2021/12/23 01:21:21;;;;;;;25.30;13.50;;;;;;;;;;5030622;28;20438;-49
2021/12/23 01:23:52;;;;;;;30.17;14.70;;;;;;;;;;5039240;28;20442;-48
2021/12/23 01:26:27;;;;;;;32.07;13.10;;;;;;;;;;5025207;28;21291;-50
2021/12/23 01:28:58;;;;;;;28.33;14.50;;;;;;;;;;5040716;28;20430;-49
2021/12/23 01:31:24;;;;;;;31.63;13.70;;;;;;;;;;5032087;28;20843;-50
2021/12/23 01:33:50;;;;;;;26.30;14.60;;;;;;;;;;5037390;28;20442;-48
2021/12/23 01:36:42;;;;;;;25.27;14.40;;;;;;;;;;5033518;28;20443;-51
2021/12/23 01:39:16;;;;;;;29.83;14.03;;;;;;;;;;5033287;28;21021;-49
2021/12/23 01:41:42;;;;;;;20.07;13.03;;;;;;;;;;5041220;28;21166;-50
2021/12/23 01:44:08;;;;;;;26.90;15.27;;;;;;;;;;5022420;28;20493;-47
2021/12/23 01:46:34;;;;;;;32.67;14.47;;;;;;;;;;5042163;28;20445;-48
2021/12/23 01:49:00;;;;;;;19.70;11.13;;;;;;;;;;5036933;28;23265;-49
2021/12/23 01:51:26;;;;;;;20.37;12.67;;;;;;;;;;5041503;28;20512;-49
2021/12/23 01:53:52;;;;;;;23.67;12.13;;;;;;;;;;5019854;28;20916;-49
2021/12/23 01:56:17;;;;;;;27.97;12.50;;;;;;;;;;5042310;28;20419;-49
2021/12/23 01:58:43;;;;;;;21.07;13.17;;;;;;;;;;5020583;28;20482;-49
2021/12/23 02:01:10;;;;;;;26.20;15.03;;;;;;;;;;5041303;28;20473;-49
2021/12/23 02:03:36;;;;;;;29.97;14.57;;;;;;;;;;5038295;28;20496;-49
2021/12/23 02:06:02;;;;;;;27.47;14.50;;;;;;;;;;5042117;28;20470;-49
2021/12/23 02:08:28;;;;;;;24.53;14.10;;;;;;;;;;5013764;28;20518;-49
2021/12/23 02:10:55;;;;;;;27.53;14.87;;;;;;;;;;5041914;28;20552;-49
2021/12/23 02:13:31;;;;;;;28.60;13.90;;;;;;;;;;5022103;28;20474;-50
2021/12/23 02:16:10;;;;;;;26.27;13.87;;;;;;;;;;5026635;28;20473;-50
2021/12/23 02:18:40;;;;;;;28.60;15.17;;;;;;;;;;5038088;28;20482;-50
2021/12/23 02:21:06;;;;;;;28.13;17.80;;;;;;;;;;5039513;28;21183;-53
2021/12/23 02:23:32;;;;;;;32.87;15.20;;;;;;;;;;5043378;28;20418;-49
2021/12/23 02:26:12;;;;;;;28.10;13.03;;;;;;;;;;5027037;28;20469;-50
2021/12/23 02:28:45;;;;;;;29.07;16.47;;;;;;;;;;5039941;28;20450;-50
2021/12/23 02:31:22;;;;;;;25.33;14.63;;;;;;;;;;5028402;28;20439;-50
2021/12/23 02:33:48;;;;;;;36.73;14.93;;;;;;;;;;5038648;28;20788;-48
2021/12/23 02:36:14;;;;;;;31.03;14.90;;;;;;;;;;5008416;28;20438;-49
2021/12/23 02:38:40;;;;;;;23.17;14.33;;;;;;;;;;5027452;28;20532;-48
2021/12/23 02:44:10;;;;;;;26.07;13.87;;;;;;;;;;5040569;28;20519;-47
2021/12/23 02:46:36;;;;;;;28.03;13.00;;;;;;;;;;5021115;28;20484;-47
2021/12/23 02:49:02;;;;;;;27.33;15.10;;;;;;;;;;5038896;28;20450;-48
2021/12/23 02:51:28;;;;;;;21.97;12.60;;;;;;;;;;5036298;28;20507;-48
2021/12/23 02:53:54;;;;;;;20.20;13.17;;;;;;;;;;5040691;28;20521;-49
2021/12/23 02:56:31;;;;;;;29.23;14.77;;;;;;;;;;5026316;28;20441;-50
2021/12/23 02:58:59;;;;;;;24.80;11.57;;;;;;;;;;5035450;28;20489;-49
2021/12/23 03:01:25;;;;;;;30.97;16.80;;;;;;;;;;5031550;28;20980;-49
2021/12/23 03:03:52;;;;;;;32.97;18.90;;;;;;;;;;5032823;28;20443;-49
2021/12/23 03:06:19;;;;;;;27.73;14.77;;;;;;;;;;5027976;28;20435;-49
2021/12/23 03:08:50;;;;;;;31.00;14.23;;;;;;;;;;5028591;28;20619;-48
2021/12/23 03:12:02;;;;;;;30.13;14.67;;;;;;;;;;5034826;28;20443;-49
2021/12/23 03:14:37;;;;;;;30.73;15.07;;;;;;;;;;5036089;28;20440;-47
2021/12/23 03:17:03;;;;;;;25.97;14.90;;;;;;;;;;5039202;28;20423;-47
2021/12/23 03:19:29;;;;;;;25.83;15.37;;;;;;;;;;5042425;28;20577;-47
2021/12/23 03:21:59;;;;;;;24.13;14.47;;;;;;;;;;5026989;28;20925;-50
2021/12/23 03:24:25;;;;;;;26.70;13.60;;;;;;;;;;5039803;28;20439;-48
2021/12/23 03:26:53;;;;;;;20.20;12.10;;;;;;;;;;5016107;28;22801;-50
2021/12/23 03:29:19;;;;;;;26.40;12.43;;;;;;;;;;5050689;28;21003;-50
2021/12/23 03:31:46;;;;;;;26.53;14.37;;;;;;;;;;5016192;28;20427;-50
2021/12/23 03:34:12;;;;;;;21.20;13.67;;;;;;;;;;5040579;28;20458;-48
2021/12/23 03:36:39;;;;;;;25.43;12.37;;;;;;;;;;5020819;28;20796;-50
2021/12/23 03:39:05;;;;;;;27.37;13.57;;;;;;;;;;5020444;28;20837;-48
2021/12/23 03:41:31;;;;;;;25.93;15.10;;;;;;;;;;5023287;28;20473;-48
2021/12/23 03:43:57;;;;;;;25.70;15.23;;;;;;;;;;5040755;28;20924;-50
2021/12/23 03:46:23;;;;;;;25.20;12.87;;;;;;;;;;5001841;28;23110;-50
2021/12/23 03:48:51;;;;;;;26.97;15.43;;;;;;;;;;5038728;28;20896;-49
2021/12/23 03:51:17;;;;;;;20.70;12.73;;;;;;;;;;5026117;28;20422;-48
2021/12/23 03:53:43;;;;;;;22.00;11.80;;;;;;;;;;5043556;28;20442;-48
2021/12/23 03:56:09;;;;;;;23.30;12.33;;;;;;;;;;5025434;28;21352;-49
2021/12/23 03:58:35;;;;;;;25.67;12.77;;;;;;;;;;5042205;28;20474;-49
2021/12/23 04:01:01;;;;;;;25.33;13.73;;;;;;;;;;5066586;28;20499;-49
2021/12/23 04:03:27;;;;;;;21.73;11.93;;;;;;;;;;5039762;28;20731;-49
2021/12/23 04:06:13;;;;;;;24.60;14.13;;;;;;;;;;5024611;28;20430;-49
2021/12/23 04:08:40;;;;;;;24.53;13.47;;;;;;;;;;5040769;28;20945;-49
2021/12/23 04:11:12;;;;;;;24.90;14.03;;;;;;;;;;5028125;28;20911;-50
2021/12/23 04:13:38;;;;;;;20.03;11.63;;;;;;;;;;5036061;28;20982;-49
2021/12/23 04:16:23;;;;;;;25.10;14.60;;;;;;;;;;5028600;28;20549;-50
2021/12/23 04:18:51;;;;;;;24.57;15.87;;;;;;;;;;5031381;28;20561;-51
2021/12/23 04:21:20;;;;;;;20.30;10.67;;;;;;;;;;5024759;28;20434;-50
2021/12/23 04:23:46;;;;;;;18.07;12.77;;;;;;;;;;5039178;28;20558;-50
2021/12/23 04:26:19;;;;;;;20.63;12.87;;;;;;;;;;5021650;28;20932;-49
2021/12/23 04:28:45;;;;;;;18.50;11.17;;;;;;;;;;5038881;28;20446;-50
2021/12/23 04:31:13;;;;;;;19.53;11.87;;;;;;;;;;5023268;28;20799;-50
2021/12/23 04:33:40;;;;;;;21.30;13.00;;;;;;;;;;5015251;28;20686;-50
2021/12/23 04:36:08;;;;;;;20.53;12.13;;;;;;;;;;5040562;28;20995;-49
2021/12/23 04:38:45;;;;;;;21.63;13.63;;;;;;;;;;5039477;28;21246;-51
2021/12/23 04:41:15;;;;;;;21.40;11.17;;;;;;;;;;5047049;28;20431;-49
2021/12/23 04:43:53;;;;;;;21.67;11.20;;;;;;;;;;5043553;28;20435;-49
2021/12/23 04:46:19;;;;;;;21.83;12.60;;;;;;;;;;5043861;28;20438;-50
2021/12/23 04:48:51;;;;;;;28.53;13.60;;;;;;;;;;5004898;28;20442;-50
2021/12/23 04:51:17;;;;;;;17.23;11.80;;;;;;;;;;5043078;28;20433;-49
2021/12/23 04:53:44;;;;;;;21.33;11.10;;;;;;;;;;5041017;28;20695;-49
2021/12/23 04:56:11;;;;;;;22.43;10.93;;;;;;;;;;5042561;28;21499;-48
2021/12/23 04:58:41;;;;;;;22.50;13.00;;;;;;;;;;5041904;28;20473;-51
2021/12/23 05:01:16;;;;;;;27.63;13.50;;;;;;;;;;5042970;28;20583;-49
2021/12/23 05:03:43;;;;;;;19.80;10.80;;;;;;;;;;5019908;28;22295;-49
2021/12/23 05:06:08;;;;;;;23.77;12.40;;;;;;;;;;5041853;28;20935;-56
2021/12/23 05:08:34;;;;;;;27.07;12.70;;;;;;;;;;5024858;28;20441;-49
2021/12/23 05:11:00;;;;;;;24.07;12.30;;;;;;;;;;5045401;28;20469;-48
2021/12/23 05:13:34;;;;;;;29.23;14.17;;;;;;;;;;5019240;28;20757;-51
2021/12/23 05:16:00;;;;;;;22.83;11.90;;;;;;;;;;5045196;28;20794;-49
2021/12/23 05:18:56;;;;;;;24.07;11.70;;;;;;;;;;5037018;28;20593;-51
2021/12/23 05:21:22;;;;;;;25.17;11.90;;;;;;;;;;5042471;28;20435;-48
2021/12/23 05:23:48;;;;;;;17.37;10.43;;;;;;;;;;5036551;28;20941;-49
2021/12/23 05:26:13;;;;;;;27.47;13.80;;;;;;;;;;5042129;28;20442;-48
2021/12/23 05:28:39;;;;;;;21.23;11.70;;;;;;;;;;5038964;28;20748;-48
2021/12/23 05:31:06;;;;;;;18.03;10.73;;;;;;;;;;5041304;28;20814;-48
2021/12/23 05:33:33;;;;;;;22.80;10.17;;;;;;;;;;5026827;28;20442;-49
2021/12/23 05:35:59;;;;;;;23.23;12.17;;;;;;;;;;5043017;28;21041;-49
2021/12/23 05:38:30;;;;;;;25.40;14.60;;;;;;;;;;5026950;28;20474;-49
2021/12/23 05:40:56;;;;;;;26.30;11.33;;;;;;;;;;5045544;28;20447;-49
2021/12/23 05:43:33;;;;;;;24.43;12.47;;;;;;;;;;5030652;28;20444;-49
2021/12/23 05:46:00;;;;;;;18.07;10.20;;;;;;;;;;5044886;28;20430;-49
2021/12/23 05:48:26;;;;;;;21.10;12.10;;;;;;;;;;5038265;28;21523;-49
2021/12/23 05:50:52;;;;;;;23.43;11.87;;;;;;;;;;5042768;28;20438;-49
2021/12/23 05:56:22;;;;;;;22.07;12.30;;;;;;;;;;4998087;28;20526;-48
2021/12/23 05:58:48;;;;;;;21.23;10.90;;;;;;;;;;5045117;28;20557;-47
2021/12/23 06:01:14;;;;;;;24.10;10.90;;;;;;;;;;5035690;28;20441;-48
2021/12/23 06:03:40;;;;;;;25.00;13.10;;;;;;;;;;5042192;28;20439;-47
2021/12/23 06:06:06;;;;;;;22.00;10.70;;;;;;;;;;5020974;28;20573;-48
2021/12/23 06:08:32;;;;;;;26.20;12.37;;;;;;;;;;5041080;28;20466;-48
2021/12/23 06:10:58;;;;;;;28.77;12.90;;;;;;;;;;5015564;28;23415;-48
2021/12/23 06:13:24;;;;;;;24.70;12.37;;;;;;;;;;5044571;28;20442;-48
2021/12/23 06:15:50;;;;;;;23.17;12.27;;;;;;;;;;5012954;28;21985;-48
2021/12/23 06:18:16;;;;;;;25.67;9.70;;;;;;;;;;5036648;28;20486;-49
2021/12/23 06:20:42;;;;;;;22.87;11.70;;;;;;;;;;5038506;28;20430;-48
2021/12/23 06:23:08;;;;;;;25.13;10.80;;;;;;;;;;5040711;28;20962;-48
2021/12/23 06:28:37;;;;;;;22.93;12.77;;;;;;;;;;5028156;28;20800;-48
2021/12/23 06:31:03;;;;;;;24.10;11.17;;;;;;;;;;5038644;28;20427;-49
2021/12/23 06:33:29;;;;;;;29.53;12.93;;;;;;;;;;5036930;28;21007;-49
2021/12/23 06:35:55;;;;;;;30.07;15.30;;;;;;;;;;5023370;28;20446;-49
2021/12/23 06:38:21;;;;;;;24.17;11.70;;;;;;;;;;5039741;28;20486;-49
2021/12/23 06:40:57;;;;;;;21.70;12.60;;;;;;;;;;5030821;28;21367;-49
2021/12/23 06:43:23;;;;;;;24.23;10.20;;;;;;;;;;5039512;28;20431;-49
2021/12/23 06:45:49;;;;;;;20.50;9.77;;;;;;;;;;5039776;28;20438;-49
2021/12/23 06:48:15;;;;;;;23.73;11.70;;;;;;;;;;5043515;28;20468;-50
2021/12/23 06:51:00;;;;;;;23.47;11.93;;;;;;;;;;5037052;28;20431;-53
2021/12/23 06:53:26;;;;;;;17.77;9.60;;;;;;;;;;5039041;28;20611;-52
2021/12/23 06:56:23;;;;;;;25.33;12.10;;;;;;;;;;5038900;28;20835;-50
2021/12/23 06:58:50;;;;;;;18.40;10.47;;;;;;;;;;5043113;28;20478;-52
2021/12/23 07:01:18;;;;;;;24.93;10.90;;;;;;;;;;5030557;28;20445;-49
2021/12/23 07:04:06;;;;;;;18.50;10.37;;;;;;;;;;5041021;28;20966;-49
2021/12/23 07:06:34;;;;;;;16.57;10.37;;;;;;;;;;5037893;28;20465;-50
2021/12/23 07:09:02;;;;;;;25.90;12.03;;;;;;;;;;5044158;28;20470;-48
2021/12/23 07:11:28;;;;;;;19.03;9.53;;;;;;;;;;5036617;28;20810;-48
2021/12/23 07:13:54;;;;;;;19.43;10.93;;;;;;;;;;5046171;28;20989;-48
2021/12/23 07:16:20;;;;;;;23.93;12.80;;;;;;;;;;5018180;28;20438;-50
2021/12/23 07:18:46;;;;;;;26.80;10.33;;;;;;;;;;5041618;28;20517;-49
2021/12/23 07:21:12;;;;;;;16.23;11.53;;;;;;;;;;5039555;28;20902;-49
2021/12/23 07:23:38;;;;;;;14.10;10.23;;;;;;;;;;5045038;28;20454;-51
2021/12/23 07:26:04;;;;;;;23.93;10.73;;;;;;;;;;5043350;28;20441;-49
2021/12/23 07:28:30;;;;;;;20.60;10.27;;;;;;;;;;5039773;28;20442;-49
2021/12/23 07:30:56;;;;;;;17.60;10.53;;;;;;;;;;5023241;28;20667;-49
2021/12/23 07:33:22;;;;;;;18.57;11.33;;;;;;;;;;5032047;28;20469;-49
2021/12/23 07:35:48;;;;;;;16.77;10.00;;;;;;;;;;5031453;28;20440;-49
2021/12/23 07:38:15;;;;;;;19.10;11.90;;;;;;;;;;5044897;28;20481;-49
2021/12/23 07:40:56;;;;;;;23.50;12.50;;;;;;;;;;5032546;28;20496;-49
2021/12/23 07:43:43;;;;;;;22.83;12.23;;;;;;;;;;5038059;28;20427;-49
2021/12/23 07:46:09;;;;;;;18.70;10.10;;;;;;;;;;5023930;28;20525;-49
2021/12/23 07:48:35;;;;;;;22.60;11.20;;;;;;;;;;5045701;28;20426;-48
2021/12/23 07:51:02;;;;;;;21.17;10.73;;;;;;;;;;5018771;28;21622;-48
2021/12/23 07:53:28;;;;;;;26.00;12.17;;;;;;;;;;5044160;28;20418;-51
2021/12/23 07:55:54;;;;;;;15.33;9.90;;;;;;;;;;5041425;28;20792;-48
2021/12/23 07:58:20;;;;;;;22.83;10.47;;;;;;;;;;5029621;28;20470;-49
2021/12/23 08:00:46;;;;;;;23.30;11.67;;;;;;;;;;5041001;28;20545;-48
2021/12/23 08:03:12;;;;;;;31.37;20.33;;;;;;;;;;5037715;28;20589;-49
2021/12/23 08:05:39;;;;;;;21.30;14.30;;;;;;;;;;5036774;28;20523;-49
2021/12/23 08:08:05;;;;;;;25.47;12.87;;;;;;;;;;5018156;28;20450;-49
2021/12/23 08:10:32;;;;;;;20.00;10.10;;;;;;;;;;5035743;28;20473;-49
2021/12/23 08:12:58;;;;;;;26.13;11.33;;;;;;;;;;5017970;28;20573;-49
2021/12/23 08:15:24;;;;;;;19.87;10.80;;;;;;;;;;5037679;28;21714;-49
2021/12/23 08:17:51;;;;;;;24.03;12.70;;;;;;;;;;5021022;28;20450;-52
2021/12/23 08:20:17;;;;;;;19.13;10.23;;;;;;;;;;5037406;28;20476;-50
2021/12/23 08:22:43;;;;;;;23.27;10.83;;;;;;;;;;5019868;28;23289;-50
2021/12/23 08:25:10;;;;;;;18.47;11.87;;;;;;;;;;5035964;28;20446;-50
2021/12/23 08:27:36;;;;;;;25.70;12.57;;;;;;;;;;5015732;28;20545;-50
2021/12/23 08:30:03;;;;;;;24.37;11.60;;;;;;;;;;5039935;28;20435;-50
2021/12/23 08:32:45;;;;;;;22.63;10.63;;;;;;;;;;5030729;28;20513;-51
2021/12/23 08:35:12;;;;;;;18.57;11.60;;;;;;;;;;5036545;28;20465;-50
2021/12/23 08:37:38;;;;;;;19.47;9.60;;;;;;;;;;5023666;28;20430;-50
2021/12/23 08:40:05;;;;;;;15.20;9.17;;;;;;;;;;5035051;28;20671;-50
2021/12/23 08:42:32;;;;;;;25.10;12.30;;;;;;;;;;5028207;28;20456;-50
2021/12/23 08:44:58;;;;;;;20.53;10.97;;;;;;;;;;5036714;28;20434;-51
2021/12/23 08:47:51;;;;;;;21.40;10.77;;;;;;;;;;5034036;28;20445;-50
2021/12/23 08:50:19;;;;;;;19.77;10.40;;;;;;;;;;5035872;28;20431;-50
2021/12/23 08:52:45;;;;;;;17.23;9.67;;;;;;;;;;5022551;28;20430;-50
2021/12/23 08:55:11;;;;;;;17.87;12.60;;;;;;;;;;5034034;28;20523;-51
2021/12/23 08:57:37;;;;;;;19.53;12.40;;;;;;;;;;5030570;28;20454;-49
2021/12/23 09:00:04;;;;;;;21.63;12.70;;;;;;;;;;5036669;28;20505;-49
2021/12/23 09:02:30;;;;;;;18.27;10.50;;;;;;;;;;5031798;28;20464;-51
2021/12/23 09:04:56;;;;;;;24.03;10.30;;;;;;;;;;5037188;28;20449;-49
2021/12/23 09:07:24;;;;;;;17.33;9.30;;;;;;;;;;5031605;28;20430;-49
2021/12/23 09:09:56;;;;;;;20.33;10.70;;;;;;;;;;5033908;28;20535;-52
2021/12/23 09:12:23;;;;;;;16.63;9.07;;;;;;;;;;5027128;28;20430;-49
2021/12/23 09:14:49;;;;;;;18.47;11.37;;;;;;;;;;5037495;28;20455;-49
2021/12/23 09:17:15;;;;;;;23.53;11.83;;;;;;;;;;5027213;28;20480;-54
2021/12/23 09:19:42;;;;;;;15.40;10.20;;;;;;;;;;5025659;28;20550;-51
2021/12/23 09:22:09;;;;;;;17.07;9.57;;;;;;;;;;5025566;28;20442;-51
2021/12/23 09:24:37;;;;;;;17.23;9.73;;;;;;;;;;5013897;28;20492;-48
2021/12/23 09:27:56;;;;;;;15.67;8.80;;;;;;;;;;5026332;28;20447;-49
2021/12/23 09:32:51;;;;;;;15.50;9.70;;;;;;;;;;5033734;28;20446;-50
2021/12/23 09:35:17;;;;;;;13.30;7.63;;;;;;;;;;5030703;28;20482;-49
2021/12/23 09:37:44;;;;;;;11.77;8.70;;;;;;;;;;5033619;28;20435;-54
2021/12/23 09:40:36;;;;;;;17.07;9.87;;;;;;;;;;5020561;28;20605;-50
2021/12/23 09:43:07;;;;;;;17.30;10.00;;;;;;;;;;5032538;28;20439;-50
2021/12/23 09:45:33;;;;;;;15.43;9.00;;;;;;;;;;5033032;28;20446;-49
2021/12/23 09:48:01;;;;;;;17.83;10.03;;;;;;;;;;5032236;28;21420;-49
2021/12/23 09:50:28;;;;;;;15.07;6.77;;;;;;;;;;5033142;28;20438;-50
2021/12/23 09:52:54;;;;;;;12.43;7.03;;;;;;;;;;5011407;28;20991;-49
2021/12/23 09:55:22;;;;;;;17.37;9.20;;;;;;;;;;5033335;28;20517;-49
2021/12/23 09:57:48;;;;;;;21.00;13.30;;;;;;;;;;5016601;28;20438;-51
2021/12/23 10:00:14;;;;;;;16.77;9.90;;;;;;;;;;5031433;28;20479;-49
2021/12/23 10:02:41;;;;;;;10.90;7.27;;;;;;;;;;5032062;28;21467;-49
2021/12/23 10:05:15;;;;;;;10.43;8.10;;;;;;;;;;5022550;28;20479;-50
2021/12/23 10:10:53;;;;;;;16.00;10.00;;;;;;;;;;5029356;28;20455;-50
2021/12/23 10:31:04;;;;;;;8.73;5.30;;;;;;;;;;5005825;28;20446;-49
2021/12/23 10:33:46;;;;;;;6.90;4.60;;;;;;;;;;5030588;28;20596;-50
2021/12/23 10:38:44;;;;;;;7.57;5.33;;;;;;;;;;5021384;28;20858;-49
2021/12/23 10:41:11;;;;;;;8.33;5.40;;;;;;;;;;5036366;28;20445;-50
2021/12/23 10:43:41;;;;;;;6.13;5.17;;;;;;;;;;5025719;28;20431;-49
2021/12/23 10:46:10;;;;;;;7.60;4.60;;;;;;;;;;5030701;28;20487;-50
2021/12/23 10:48:48;;;;;;;6.70;5.00;;;;;;;;;;5016935;28;20442;-50
2021/12/23 10:51:19;;;;;;;6.20;4.33;;;;;;;;;;5031071;28;20988;-50
2021/12/23 10:59:08;;;;;;;7.57;4.37;;;;;;;;;;5004824;28;21020;-49
2021/12/23 11:01:37;;;;;;;9.30;4.87;;;;;;;;;;5028810;28;21015;-49
2021/12/23 11:04:04;;;;;;;8.20;4.13;;;;;;;;;;5015742;28;20450;-50
2021/12/23 11:06:46;;;;;;;6.13;4.50;;;;;;;;;;5029310;28;20438;-50
2021/12/23 11:09:34;;;;;;;7.77;4.37;;;;;;;;;;5030736;28;21003;-48
2021/12/23 11:27:24;;;;;;;6.30;4.30;;;;;;;;;;5023123;28;20443;-48
2021/12/23 11:37:25;;;;;;;5.50;3.70;;;;;;;;;;5033043;28;20461;-49
2021/12/23 11:40:06;;;;;;;6.90;4.67;;;;;;;;;;5029800;28;20489;-49
2021/12/23 11:42:59;;;;;;;6.47;3.87;;;;;;;;;;5032810;28;20434;-49
2021/12/23 11:45:21;;;;;;;4.57;3.77;;;;;;;;;;5033832;28;20449;-49
2021/12/23 11:47:47;;;;;;;5.87;4.33;;;;;;;;;;5058619;28;20453;-49
2021/12/23 11:50:30;;;;;;;6.50;3.30;;;;;;;;;;5042835;28;20442;-51
2021/12/23 11:52:56;;;;;;;4.87;4.37;;;;;;;;;;5034899;28;20439;-50
2021/12/23 11:55:23;;;;;;;7.73;4.70;;;;;;;;;;5039251;28;21059;-49
2021/12/23 11:57:49;;;;;;;5.10;4.07;;;;;;;;;;5021366;28;20450;-50
2021/12/23 12:00:19;;;;;;;6.90;4.60;;;;;;;;;;5042267;28;20493;-49
2021/12/23 12:03:04;;;;;;;9.17;4.43;;;;;;;;;;5023457;28;20671;-49
2021/12/23 12:06:01;;;;;;;11.73;6.13;;;;;;;;;;5048622;28;20472;-49
2021/12/23 12:08:31;;;;;;;8.40;5.47;;;;;;;;;;5036161;28;20449;-49
2021/12/23 12:11:13;;;;;;;6.30;4.60;;;;;;;;;;5031079;28;20836;-50
2021/12/23 12:14:17;;;;;;;5.63;3.43;;;;;;;;;;5043095;28;20433;-50
2021/12/23 12:17:21;;;;;;;7.03;3.80;;;;;;;;;;5039899;28;20427;-50
2021/12/23 12:20:07;;;;;;;5.70;3.37;;;;;;;;;;5019063;28;21121;-51
2021/12/23 12:22:49;;;;;;;5.00;4.50;;;;;;;;;;5037507;28;20422;-48
2021/12/23 12:25:30;;;;;;;8.57;3.70;;;;;;;;;;5008687;28;20566;-49
2021/12/23 12:27:56;;;;;;;4.57;3.23;;;;;;;;;;5038212;28;20958;-51
2021/12/23 12:30:41;;;;;;;4.93;3.47;;;;;;;;;;5020897;28;20438;-48
2021/12/23 12:33:12;;;;;;;9.63;4.20;;;;;;;;;;5054927;28;20468;-50
2021/12/23 12:35:41;;;;;;;5.33;3.60;;;;;;;;;;5032295;28;20488;-49
2021/12/23 12:38:14;;;;;;;8.23;4.67;;;;;;;;;;5038022;28;20554;-50
2021/12/23 12:40:59;;;;;;;4.30;3.30;;;;;;;;;;5034973;28;20438;-49
2021/12/23 12:43:53;;;;;;;4.47;3.53;;;;;;;;;;5037121;28;20446;-50
2021/12/23 12:46:44;;;;;;;4.43;3.80;;;;;;;;;;5034953;28;20477;-50
2021/12/23 12:49:16;;;;;;;8.00;3.83;;;;;;;;;;5029658;28;20442;-49
2021/12/23 12:51:49;;;;;;;9.17;7.03;;;;;;;;;;5039020;28;20442;-49
2021/12/23 12:54:25;;;;;;;3.83;2.97;;;;;;;;;;5055644;28;22026;-49
2021/12/23 12:56:54;;;;;;;3.67;2.63;;;;;;;;;;5037103;28;20429;-48
2021/12/23 13:02:32;;;;;;;4.23;3.10;;;;;;;;;;5032123;28;20452;-53
2021/12/23 13:04:59;;;;;;;5.70;3.60;;;;;;;;;;5011700;28;21415;-48
2021/12/23 13:07:34;;;;;;;4.73;3.60;;;;;;;;;;5035786;28;20464;-49
2021/12/23 13:10:12;;;;;;;9.70;3.63;;;;;;;;;;5034185;28;20468;-48
2021/12/23 13:12:47;;;;;;;6.03;3.90;;;;;;;;;;5035389;28;20462;-48
2021/12/23 13:15:18;;;;;;;6.83;3.87;;;;;;;;;;5031490;28;20435;-49
2021/12/23 13:17:49;;;;;;;6.73;5.07;;;;;;;;;;5035575;28;20527;-48
2021/12/23 13:20:16;;;;;;;6.47;4.30;;;;;;;;;;5008993;28;20592;-48
2021/12/23 13:22:43;;;;;;;5.57;4.60;;;;;;;;;;5012885;28;20450;-48
2021/12/23 13:25:10;;;;;;;4.87;3.73;;;;;;;;;;5035784;28;20483;-48
2021/12/23 13:27:38;;;;;;;4.60;3.70;;;;;;;;;;5029906;28;20489;-48
2021/12/23 13:30:04;;;;;;;5.90;3.80;;;;;;;;;;5034320;28;20470;-53
2021/12/23 13:32:31;;;;;;;4.20;3.37;;;;;;;;;;4992027;28;20843;-48
2021/12/23 13:34:56;;;;;;;6.57;4.13;;;;;;;;;;5036416;28;20814;-48
2021/12/23 13:37:22;;;;;;;6.70;3.97;;;;;;;;;;5010973;28;21145;-48
2021/12/23 13:39:49;;;;;;;7.57;4.57;;;;;;;;;;5032432;28;20471;-51
2021/12/23 13:42:46;;;;;;;4.77;4.00;;;;;;;;;;5024908;28;20864;-55
2021/12/23 13:45:17;;;;;;;8.87;4.47;;;;;;;;;;5035628;28;20442;-50
2021/12/23 13:47:48;;;;;;;5.27;3.60;;;;;;;;;;5013106;28;20458;-50
2021/12/23 13:50:14;;;;;;;4.53;3.90;;;;;;;;;;5036626;28;20505;-50
2021/12/23 13:52:41;;;;;;;6.40;5.73;;;;;;;;;;5030764;28;20458;-48
2021/12/23 13:55:14;;;;;;;5.93;4.10;;;;;;;;;;5035355;28;20549;-49
2021/12/23 13:57:42;;;;;;;6.97;4.00;;;;;;;;;;5033264;28;20443;-49
2021/12/23 14:00:19;;;;;;;5.23;3.93;;;;;;;;;;5053602;28;20498;-49
2021/12/23 14:03:15;;;;;;;5.10;3.80;;;;;;;;;;4983301;28;22271;-49
2021/12/23 14:05:50;;;;;;;5.63;4.23;;;;;;;;;;5014176;28;20575;-49
2021/12/23 14:08:18;;;;;;;11.70;4.17;;;;;;;;;;5018295;28;21142;-49
2021/12/23 14:10:45;;;;;;;5.97;4.10;;;;;;;;;;5010651;28;21121;-50
2021/12/23 14:13:12;;;;;;;5.93;4.00;;;;;;;;;;5032621;28;20442;-49
2021/12/23 14:15:45;;;;;;;7.73;4.70;;;;;;;;;;5015070;28;20475;-50
2021/12/23 14:23:34;;;;;;;6.47;4.50;;;;;;;;;;5039970;28;20949;-49
2021/12/23 14:26:02;;;;;;;7.70;4.70;;;;;;;;;;5038550;28;20434;-50
2021/12/23 14:28:28;;;;;;;6.80;4.50;;;;;;;;;;5038885;28;20925;-49
2021/12/23 14:31:00;;;;;;;12.30;4.70;;;;;;;;;;5034525;28;21555;-49
2021/12/23 14:33:28;;;;;;;6.23;3.57;;;;;;;;;;5042086;28;20480;-49
2021/12/23 14:35:55;;;;;;;6.33;4.33;;;;;;;;;;4984459;28;20458;-47
2021/12/23 14:38:30;;;;;;;7.73;4.67;;;;;;;;;;5040034;28;20661;-50
2021/12/23 14:41:00;;;;;;;7.00;4.40;;;;;;;;;;5034411;28;20419;-47
2021/12/23 14:43:28;;;;;;;8.20;4.83;;;;;;;;;;5036246;28;20536;-48
2021/12/23 14:45:57;;;;;;;6.60;4.57;;;;;;;;;;5030494;28;21106;-47
2021/12/23 14:48:24;;;;;;;4.77;4.20;;;;;;;;;;5036663;28;20422;-47
2021/12/23 14:51:01;;;;;;;7.10;4.43;;;;;;;;;;5038137;28;20422;-48
2021/12/23 14:53:27;;;;;;;6.80;4.10;;;;;;;;;;5039954;28;20446;-49
2021/12/23 14:55:53;;;;;;;5.37;3.93;;;;;;;;;;5034596;28;20423;-48
2021/12/23 14:58:19;;;;;;;5.60;4.33;;;;;;;;;;5036273;28;20181;-48
2021/12/23 15:00:45;;;;;;;8.37;4.80;;;;;;;;;;5027839;28;20445;-48
2021/12/23 15:03:12;;;;;;;8.50;5.27;;;;;;;;;;5037933;28;20502;-53
2021/12/23 15:05:40;;;;;;;6.40;5.00;;;;;;;;;;5015127;28;20457;-49
2021/12/23 15:08:15;;;;;;;7.33;5.47;;;;;;;;;;5045655;28;20796;-49
2021/12/23 15:10:54;;;;;;;9.70;4.43;;;;;;;;;;5018799;28;20450;-49
2021/12/23 15:13:49;;;;;;;7.37;4.23;;;;;;;;;;5029786;28;20482;-50
2021/12/23 15:16:22;;;;;;;7.00;5.23;;;;;;;;;;5002149;28;20442;-49
2021/12/23 15:21:35;;;;;;;8.13;4.50;;;;;;;;;;5010673;28;20591;-50
2021/12/23 15:24:26;;;;;;;7.70;4.83;;;;;;;;;;5045039;28;20434;-49
2021/12/23 15:27:10;;;;;;;7.00;4.37;;;;;;;;;;5045032;28;20443;-50
2021/12/23 15:29:44;;;;;;;4.93;3.57;;;;;;;;;;5018832;28;20516;-49
2021/12/23 15:32:37;;;;;;;8.30;4.80;;;;;;;;;;5034107;28;21064;-49
2021/12/23 15:35:14;;;;;;;6.80;4.70;;;;;;;;;;5036571;28;20554;-49
2021/12/23 15:37:41;;;;;;;7.77;4.73;;;;;;;;;;5014079;28;20439;-48
2021/12/23 15:40:08;;;;;;;7.50;4.80;;;;;;;;;;5035379;28;20489;-49
2021/12/23 15:42:34;;;;;;;11.13;3.90;;;;;;;;;;4999932;28;20437;-49
2021/12/23 15:45:03;;;;;;;6.90;5.27;;;;;;;;;;5032640;28;20940;-50
2021/12/23 15:47:30;;;;;;;6.97;4.60;;;;;;;;;;5030546;28;20438;-49
2021/12/23 15:50:01;;;;;;;8.50;4.53;;;;;;;;;;5033244;28;21122;-49
2021/12/23 15:52:28;;;;;;;6.60;4.60;;;;;;;;;;5007448;28;20438;-47
2021/12/23 15:54:54;;;;;;;6.23;5.23;;;;;;;;;;5007881;28;20457;-47
2021/12/23 15:57:20;;;;;;;9.90;4.90;;;;;;;;;;5029735;28;20518;-49
2021/12/23 15:59:51;;;;;;;6.73;4.87;;;;;;;;;;5028344;28;20478;-49
2021/12/23 16:02:17;;;;;;;11.20;5.93;;;;;;;;;;5030352;28;20968;-48
2021/12/23 16:07:28;;;;;;;8.23;4.90;;;;;;;;;;5030264;28;20446;-50
2021/12/23 16:09:55;;;;;;;7.57;6.20;;;;;;;;;;5014199;28;20442;-50
2021/12/23 16:12:24;;;;;;;8.47;4.77;;;;;;;;;;5032702;28;20430;-49